SILO ALERT LOG


Silo ID Alert Type Alert Message Silo Type Points Depth (mm) Strength Temperature (°C) Humidity (%) Height (mm) Volume (㎥) Weight (t) Flag Time
DJSAD18 Humidity 습도센서 측정값이 80% 초과 114 1378 5658 6.6 80.8 6201 617.522 390.398 11 2024-01-03 13:39:30.000
DJHNR14 Humidity 습도센서 측정값이 80% 초과 호퍼 247 502 957 4.8 99.9 9877 159.087 100.575 11 2024-01-03 13:39:29.000
DJSSD12 Temperature 온도센서 상태 이상 호퍼 0 11350 0 -999 -999 -120 0 0 31 2024-01-03 13:39:24.000
DJHNR03 Temperature 온도센서 상태 이상 호퍼 0 15500 0 -999 -999 -119 0 0 31 2024-01-03 13:39:23.000
DJSAD01 Humidity 습도센서 측정값이 80% 초과 446 1508 7340 3.2 89 7271 301.026 190.308 0 2024-01-03 12:39:40.000
DJSAD03 Humidity 습도센서 측정값이 80% 초과 443 1707 6168 4.5 84.5 7072 292.762 185.084 0 2024-01-03 12:39:39.000
DJSAD05 Humidity 습도센서 측정값이 80% 초과 476 1474 8993 4.1 81.5 7305 302.433 191.198 0 2024-01-03 12:39:39.000
DJSAD02 Humidity 습도센서 측정값이 80% 초과 380 1132 4355 3.9 87.7 7647 316.584 200.145 11 2024-01-03 12:39:38.000
DJHNR01 Humidity 습도센서 측정값이 80% 초과 호퍼 471 4307 4929 6.7 99.9 11072 472.84 298.929 13 2024-01-03 12:39:33.000
DJSSD05 Temperature 온도센서 측정값이 0도 미만 838 2558 4877 -45.4 43.9 5521 768.499 485.845 0 2024-01-03 12:39:33.000
DJSSD04 Temperature 온도센서 상태 이상 0 8200 0 -999 -999 -120 -16.702 0 31 2024-01-03 12:39:33.000
DJSAD12 Humidity 습도센서 측정값이 80% 초과 0 7700 0 4.4 86.1 -120 -17.075 0 31 2024-01-03 12:39:33.000
DJSSD09 Temperature 온도센서 측정값이 0도 미만 105 2986 2949 -45.4 0 4693 653.206 412.957 11 2024-01-03 12:39:32.000
DJHNR06 Humidity 습도센서 측정값이 80% 초과 516 2726 2750 5.1 81.7 4953 704.912 445.645 0 2024-01-03 12:39:32.000
DJSSD01 Humidity 습도센서 측정값이 80% 초과 807 2569 4758 7 82.8 5510 767.017 484.908 0 2024-01-03 12:39:32.000
DJSAD08 Humidity 습도센서 측정값이 80% 초과 588 2595 4945 8.3 83.5 4984 709.253 448.39 12 2024-01-03 12:39:32.000
DJSAD07 Humidity 습도센서 측정값이 80% 초과 659 2544 2709 5.4 85.3 5035 716.451 452.94 0 2024-01-03 12:39:32.000
DJSSD11 Humidity 습도센서 측정값이 80% 초과 호퍼 443 7361 147 5.3 85.8 3868 29.513 16.085 0 2024-01-03 12:39:31.000
DJHNR14 Humidity 습도센서 측정값이 80% 초과 호퍼 222 618 852 4.9 99.9 9761 156.589 98.995 29 2024-01-03 12:39:30.000
DJHNR12 Humidity 습도센서 측정값이 80% 초과 호퍼 447 6921 288 5.2 82.8 3458 20.663 13.063 0 2024-01-03 12:39:30.000

[첫 페이지] [10205] [10206] [10207] [10208] 10209 [10210] [10211] [10212] [10213] [마지막 페이지]